Fecha, hora, temperatura, viento dirección y velocidad, humedad y presión.

  • 22-05-2019 17:00:00 | 14.90°C | Noroeste |9.00 km/h | 57.00% | 0.00 hPa
  • 22-05-2019 16:00:00 | 14.80°C | Noroeste |8.00 km/h | 52.00% | 0.00 hPa
  • 22-05-2019 15:00:00 | 15.50°C | Noroeste |8.00 km/h | 50.00% | 0.00 hPa
  • 22-05-2019 14:00:00 | 15.90°C | Noroeste |5.00 km/h | 46.00% | 0.00 hPa
  • 22-05-2019 13:00:00 | 15.70°C | Norte |3.00 km/h | 40.00% | 0.00 hPa
  • 22-05-2019 12:00:00 | 15.20°C | Sur |5.00 km/h | 44.00% | 0.00 hPa
  • 22-05-2019 11:00:00 | 13.70°C | Sudeste |9.00 km/h | 47.00% | 0.00 hPa
  • 22-05-2019 10:00:00 | 12.20°C | Sur |12.00 km/h | 51.00% | 0.00 hPa
  • 22-05-2019 09:00:00 | 10.80°C | Sur |13.00 km/h | 52.00% | 0.00 hPa
  • 22-05-2019 08:00:00 | 9.80°C | Sur |16.00 km/h | 54.00% | 0.00 hPa
  • 22-05-2019 07:00:00 | 8.40°C | Sur |15.00 km/h | 58.00% | 0.00 hPa
  • 22-05-2019 06:00:00 | 8.90°C | Sur |14.00 km/h | 57.00% | 0.00 hPa
  • 22-05-2019 05:00:00 | 8.50°C | Sur |10.00 km/h | 63.00% | 0.00 hPa
  • 22-05-2019 04:00:00 | 8.00°C | Sur |13.00 km/h | 65.00% | 0.00 hPa
  • 22-05-2019 03:00:00 | 8.30°C | Sur |13.00 km/h | 66.00% | 0.00 hPa
  • 22-05-2019 02:00:00 | 6.60°C | Sur |5.00 km/h | 74.00% | 0.00 hPa
  • 22-05-2019 01:00:00 | 7.10°C | Sudoeste |10.00 km/h | 75.00% | 0.00 hPa
  • 22-05-2019 00:00:00 | 6.20°C | Sur |2.00 km/h | 85.00% | 0.00 hPa
  • 21-05-2019 23:00:00 | 6.10°C | Sudoeste |3.00 km/h | 89.00% | 0.00 hPa
  • 21-05-2019 22:00:00 | 7.80°C | Calma |0.00 km/h | 90.00% | 0.00 hPa
  • 21-05-2019 21:00:00 | 7.90°C | Noroeste |5.00 km/h | 90.00% | 0.00 hPa
  • 21-05-2019 20:00:00 | 8.00°C | Noroeste |7.00 km/h | 88.00% | 0.00 hPa
  • 21-05-2019 19:00:00 | 8.50°C | Noroeste |6.00 km/h | 85.00% | 0.00 hPa
  • 21-05-2019 18:00:00 | 9.50°C | Noroeste |5.00 km/h | 77.00% | 0.00 hPa
    • diseño web asturias Información sobre el estado de las mareas, altura de la marejada, temperatura del agua y otros datos de Gijón en Asturias.

      Surf Gijón